createdAt,value
2022-10-19T00:01:42.098Z,10.13
2022-10-19T00:04:09.153Z,7.20
2022-10-19T00:06:36.756Z,6.70
2022-10-19T00:09:08.180Z,6.63
2022-10-19T00:11:38.184Z,10.53
2022-10-19T00:14:05.649Z,12.40
2022-10-19T00:16:35.812Z,9.53
2022-10-19T00:19:05.658Z,6.37
2022-10-19T00:21:32.679Z,7.80
2022-10-19T00:23:59.416Z,9.70
2022-10-19T00:26:26.295Z,8.23
2022-10-19T00:28:56.657Z,8.43
2022-10-19T00:31:23.840Z,9.67
2022-10-19T00:33:50.565Z,6.20
2022-10-19T00:36:19.530Z,20.00
2022-10-19T00:38:46.323Z,5.80
2022-10-19T00:41:13.212Z,8.23
2022-10-19T00:43:58.098Z,10.83
2022-10-19T00:46:26.434Z,7.03
2022-10-19T00:49:01.229Z,6.20
2022-10-19T00:51:31.607Z,11.50
2022-10-19T00:53:58.342Z,11.30
2022-10-19T00:56:24.944Z,10.33
2022-10-19T00:58:53.305Z,7.17
2022-10-19T01:01:23.717Z,8.83
2022-10-19T01:03:50.829Z,8.10
2022-10-19T01:06:18.498Z,12.87
2022-10-19T01:08:45.873Z,14.40
2022-10-19T01:11:34.696Z,8.90
2022-10-19T01:14:39.925Z,14.13
2022-10-19T01:17:21.604Z,9.87
2022-10-19T01:20:08.057Z,15.73
2022-10-19T01:23:00.078Z,15.00
2022-10-19T01:25:44.604Z,6.00
2022-10-19T01:28:23.218Z,10.53
2022-10-19T01:31:11.671Z,8.57
2022-10-19T01:33:49.683Z,11.60
2022-10-19T01:36:34.440Z,9.47
2022-10-19T01:39:45.326Z,7.83
2022-10-19T01:42:29.821Z,10.73
2022-10-19T01:45:18.149Z,7.17
2022-10-19T01:47:55.917Z,8.50
2022-10-19T01:50:52.676Z,9.70
2022-10-19T01:53:20.465Z,9.30
2022-10-19T01:55:51.157Z,6.93
2022-10-19T01:58:24.772Z,13.13
2022-10-19T02:00:53.320Z,7.13
2022-10-19T02:03:20.711Z,7.13
2022-10-19T02:05:48.304Z,12.50
2022-10-19T02:08:22.086Z,8.20
2022-10-19T02:10:49.032Z,12.33
2022-10-19T02:13:17.317Z,10.47
2022-10-19T02:15:48.027Z,7.33
2022-10-19T02:18:19.841Z,12.10
2022-10-19T02:20:46.691Z,7.67
2022-10-19T02:23:17.359Z,8.30
2022-10-19T02:25:44.133Z,15.63
2022-10-19T02:28:11.334Z,7.10
2022-10-19T02:30:38.443Z,8.30
2022-10-19T02:33:05.298Z,6.33
2022-10-19T02:35:31.924Z,8.30
2022-10-19T02:38:01.395Z,6.80
2022-10-19T02:40:32.423Z,6.87
2022-10-19T02:43:05.417Z,5.93
2022-10-19T02:45:38.323Z,8.43
2022-10-19T02:48:14.219Z,9.10
2022-10-19T02:50:51.903Z,9.90
2022-10-19T02:53:18.857Z,15.70
2022-10-19T02:55:48.344Z,9.37
2022-10-19T02:58:15.396Z,8.20
2022-10-19T03:00:42.385Z,6.90
2022-10-19T03:03:10.181Z,9.50
2022-10-19T03:05:37.135Z,12.93
2022-10-19T03:08:04.086Z,7.30
2022-10-19T03:10:30.824Z,8.33
2022-10-19T03:12:58.509Z,7.83
2022-10-19T03:15:28.900Z,6.60
2022-10-19T03:17:55.974Z,7.10
2022-10-19T03:20:22.763Z,6.50
2022-10-19T03:22:49.746Z,6.53
2022-10-19T03:25:16.621Z,7.97
2022-10-19T03:27:43.367Z,6.17
2022-10-19T03:30:10.513Z,6.60
2022-10-19T03:32:37.229Z,8.47
2022-10-19T03:35:04.072Z,16.43
2022-10-19T03:37:31.228Z,11.60
2022-10-19T03:39:58.031Z,9.13
2022-10-19T03:42:24.663Z,20.80
2022-10-19T03:44:51.288Z,11.73
2022-10-19T03:47:17.904Z,15.63
2022-10-19T03:49:44.693Z,8.97
2022-10-19T03:52:11.963Z,7.37
2022-10-19T03:54:38.678Z,8.83
2022-10-19T03:57:05.287Z,10.33
2022-10-19T03:59:32.062Z,7.47
2022-10-19T04:01:58.673Z,7.33
2022-10-19T04:04:25.482Z,10.13
2022-10-19T04:06:53.781Z,9.00
2022-10-19T04:09:22.439Z,10.43
2022-10-19T04:11:49.378Z,7.20
2022-10-19T04:14:26.929Z,7.87
2022-10-19T04:17:01.615Z,10.30
2022-10-19T04:19:28.443Z,6.90
2022-10-19T04:21:55.156Z,7.50
2022-10-19T04:24:22.370Z,15.53
2022-10-19T04:26:51.150Z,12.53
2022-10-19T04:29:20.784Z,17.40
2022-10-19T04:31:53.178Z,7.03
2022-10-19T04:34:20.251Z,8.30
2022-10-19T04:36:46.963Z,9.80
2022-10-19T04:39:13.951Z,8.17
2022-10-19T04:41:40.777Z,14.57
2022-10-19T04:44:07.652Z,8.73
2022-10-19T04:46:34.684Z,7.77
2022-10-19T04:49:04.077Z,7.30
2022-10-19T04:51:30.841Z,10.63
2022-10-19T04:53:59.541Z,10.30
2022-10-19T04:56:27.776Z,6.90
2022-10-19T04:58:57.391Z,7.90
2022-10-19T05:01:25.605Z,8.13
2022-10-19T05:06:25.190Z,7.23
2022-10-19T05:08:52.554Z,14.30
2022-10-19T05:11:20.393Z,8.00
2022-10-19T05:13:48.135Z,11.07
2022-10-19T05:16:17.965Z,9.03
2022-10-19T05:18:48.919Z,8.17
2022-10-19T05:21:16.755Z,17.47
2022-10-19T05:23:43.737Z,7.27
2022-10-19T05:26:17.398Z,13.00
2022-10-19T05:28:56.701Z,12.97
2022-10-19T05:31:29.271Z,9.83
2022-10-19T05:33:56.685Z,8.43
2022-10-19T05:36:27.591Z,10.60
2022-10-19T05:38:56.563Z,10.20
2022-10-19T05:41:25.022Z,20.13
2022-10-19T05:43:58.770Z,9.27
2022-10-19T05:46:27.197Z,12.60
2022-10-19T05:48:55.891Z,8.80
2022-10-19T05:51:23.715Z,8.67
2022-10-19T05:53:50.450Z,8.17
2022-10-19T05:56:21.287Z,7.13
2022-10-19T05:58:48.727Z,9.67
2022-10-19T06:01:16.347Z,10.73
2022-10-19T06:03:43.261Z,8.73
2022-10-19T06:06:10.314Z,8.00
2022-10-19T06:08:38.572Z,8.37
2022-10-19T06:11:26.054Z,11.53
2022-10-19T06:13:56.339Z,10.90
2022-10-19T06:16:24.735Z,9.07
2022-10-19T06:18:53.055Z,10.10
2022-10-19T06:21:23.666Z,9.43
2022-10-19T06:23:59.124Z,7.97
2022-10-19T06:26:27.061Z,14.40
2022-10-19T06:28:56.714Z,6.77
2022-10-19T06:31:23.662Z,9.97
2022-10-19T06:33:50.333Z,8.60
2022-10-19T06:36:22.859Z,11.20
2022-10-19T06:38:50.300Z,9.50
2022-10-19T06:41:17.705Z,11.43
2022-10-19T06:43:44.795Z,12.93
2022-10-19T06:46:17.506Z,6.37
2022-10-19T06:48:44.346Z,18.70
2022-10-19T06:51:13.050Z,8.60
2022-10-19T06:53:39.893Z,11.03
2022-10-19T06:56:07.082Z,10.30
2022-10-19T06:58:37.774Z,15.20
2022-10-19T07:01:07.414Z,14.33
2022-10-19T07:03:35.251Z,9.13
2022-10-19T07:06:05.103Z,13.33
2022-10-19T07:08:33.093Z,11.23
2022-10-19T07:11:06.328Z,12.30
2022-10-19T07:13:33.929Z,12.20
2022-10-19T07:16:05.456Z,14.73
2022-10-19T07:18:32.731Z,13.87
2022-10-19T07:21:01.221Z,12.77
2022-10-19T07:23:30.959Z,18.33
2022-10-19T07:26:02.023Z,13.23
2022-10-19T07:28:30.170Z,11.93
2022-10-19T07:30:57.275Z,10.67
2022-10-19T07:33:24.393Z,9.87
2022-10-19T07:35:51.324Z,12.63
2022-10-19T07:38:17.957Z,14.60
2022-10-19T07:40:47.282Z,16.23
2022-10-19T07:43:14.321Z,20.17
2022-10-19T07:45:40.982Z,15.90
2022-10-19T07:48:07.729Z,17.73
2022-10-19T07:50:34.333Z,15.20
2022-10-19T07:53:03.313Z,17.83
2022-10-19T07:55:29.977Z,16.70
2022-10-19T07:58:01.345Z,15.83
2022-10-19T08:00:28.274Z,11.73
2022-10-19T08:03:19.380Z,19.60
2022-10-19T08:05:41.913Z,17.50
2022-10-19T08:08:08.530Z,17.60
2022-10-19T08:10:35.243Z,21.70
2022-10-19T08:13:01.950Z,25.43
2022-10-19T08:15:30.084Z,21.77
2022-10-19T08:17:56.888Z,29.47
2022-10-19T08:20:23.631Z,20.53
2022-10-19T08:22:52.029Z,25.10
2022-10-19T08:25:21.735Z,20.17
2022-10-19T08:27:48.641Z,21.07
2022-10-19T08:30:15.342Z,18.37
2022-10-19T08:32:42.034Z,18.73
2022-10-19T08:35:10.722Z,13.10
2022-10-19T08:37:45.181Z,18.27
2022-10-19T08:40:26.811Z,22.00
2022-10-19T08:43:12.499Z,29.30
2022-10-19T08:46:07.882Z,18.87
2022-10-19T08:48:38.034Z,22.00
2022-10-19T08:51:06.319Z,20.33
2022-10-19T08:53:46.177Z,28.27
2022-10-19T08:56:49.859Z,21.40
2022-10-19T08:59:44.037Z,21.43
2022-10-19T09:02:39.470Z,16.90
2022-10-19T09:05:27.484Z,18.23
2022-10-19T09:07:54.846Z,25.07
2022-10-19T09:10:50.300Z,18.37
2022-10-19T09:13:41.483Z,28.30
2022-10-19T09:16:21.366Z,19.77
2022-10-19T09:18:49.431Z,22.30
2022-10-19T09:21:45.957Z,26.93
2022-10-19T09:24:42.765Z,16.00
2022-10-19T09:27:23.859Z,15.73
2022-10-19T09:29:55.843Z,12.80
2022-10-19T09:32:31.194Z,11.30
2022-10-19T09:35:02.306Z,10.87
2022-10-19T09:40:02.002Z,9.33
2022-10-19T09:42:33.105Z,8.33
2022-10-19T09:45:19.921Z,6.00
2022-10-19T09:47:48.702Z,14.00
2022-10-19T09:50:21.914Z,9.80
2022-10-19T09:52:55.184Z,6.40
2022-10-19T09:55:29.605Z,7.00
2022-10-19T09:58:03.201Z,6.20
2022-10-19T10:00:39.288Z,8.70
2022-10-19T10:03:07.614Z,11.43
2022-10-19T10:05:37.884Z,5.00
2022-10-19T10:08:12.174Z,5.57
2022-10-19T10:10:43.275Z,5.97
2022-10-19T10:13:21.247Z,4.67
2022-10-19T10:15:55.925Z,5.40
2022-10-19T10:18:24.442Z,3.40
2022-10-19T10:21:24.427Z,3.20
2022-10-19T10:24:05.470Z,5.80
2022-10-19T10:26:37.977Z,5.67
2022-10-19T10:29:18.325Z,3.87
2022-10-19T10:31:51.283Z,4.87
2022-10-19T10:35:00.964Z,5.30
2022-10-19T10:37:39.542Z,5.57
2022-10-19T10:40:19.992Z,3.10
2022-10-19T10:42:51.514Z,8.13
2022-10-19T10:45:30.735Z,4.97
2022-10-19T10:47:59.730Z,2.20
2022-10-19T10:50:33.595Z,2.37
2022-10-19T10:53:06.805Z,5.40
2022-10-19T10:55:34.671Z,5.00
2022-10-19T10:58:24.251Z,3.30
2022-10-19T11:00:53.863Z,6.30
2022-10-19T11:03:28.773Z,12.87
2022-10-19T11:06:00.618Z,5.73
2022-10-19T11:08:47.872Z,23.60
2022-10-19T11:11:34.455Z,2.53
2022-10-19T11:14:20.182Z,4.37
2022-10-19T11:16:50.057Z,3.37
2022-10-19T11:19:37.111Z,5.07
2022-10-19T11:22:16.628Z,2.90
2022-10-19T11:25:30.688Z,3.67
2022-10-19T11:28:15.826Z,4.63
2022-10-19T11:31:06.397Z,3.50
2022-10-19T11:33:44.149Z,7.30
2022-10-19T11:36:48.403Z,6.70
2022-10-19T11:39:23.968Z,6.50
2022-10-19T11:42:15.452Z,5.83
2022-10-19T11:45:05.689Z,6.83
2022-10-19T11:47:59.326Z,5.90
2022-10-19T11:50:49.600Z,3.80
2022-10-19T11:53:33.954Z,5.33
2022-10-19T11:56:19.238Z,3.70
2022-10-19T11:59:05.610Z,5.00
2022-10-19T12:01:37.969Z,3.90
2022-10-19T12:04:28.650Z,5.83
2022-10-19T12:07:39.269Z,4.20
2022-10-19T12:10:08.972Z,5.47
2022-10-19T12:12:49.739Z,5.00
2022-10-19T12:15:35.336Z,3.47
2022-10-19T12:18:30.998Z,4.90
2022-10-19T12:21:01.818Z,8.73
2022-10-19T12:23:33.199Z,4.53
2022-10-19T12:26:03.205Z,6.23
2022-10-19T12:28:33.002Z,3.83
2022-10-19T12:31:02.078Z,8.53
2022-10-19T12:33:46.722Z,4.43
2022-10-19T12:36:36.964Z,5.33
2022-10-19T12:39:39.054Z,4.73
2022-10-19T12:42:38.905Z,7.87
2022-10-19T12:45:19.096Z,5.80
2022-10-19T12:48:18.677Z,6.20
2022-10-19T12:50:48.363Z,4.83
2022-10-19T12:53:30.534Z,4.83
2022-10-19T12:56:17.383Z,4.80
2022-10-19T12:58:46.720Z,4.13
2022-10-19T13:01:34.917Z,6.10
2022-10-19T13:04:09.931Z,4.27
2022-10-19T13:06:42.199Z,4.50
2022-10-19T13:09:25.610Z,5.10
2022-10-19T13:12:25.655Z,2.77
2022-10-19T13:15:00.901Z,5.23
2022-10-19T13:17:37.294Z,4.93
2022-10-19T13:20:16.227Z,10.53
2022-10-19T13:22:50.868Z,4.53
2022-10-19T13:25:43.616Z,7.33
2022-10-19T13:28:10.284Z,4.73
2022-10-19T13:30:42.686Z,3.93
2022-10-19T13:33:24.819Z,5.30
2022-10-19T13:36:00.571Z,8.23
2022-10-19T13:38:29.495Z,6.70
2022-10-19T13:41:01.159Z,5.33
2022-10-19T13:43:34.878Z,7.50
2022-10-19T13:46:07.593Z,4.20
2022-10-19T13:48:59.296Z,7.07
2022-10-19T13:51:55.086Z,5.40
2022-10-19T13:54:41.768Z,4.70
2022-10-19T13:57:42.137Z,2.83
2022-10-19T14:00:16.421Z,7.53
2022-10-19T14:02:46.126Z,2.60
2022-10-19T14:05:41.297Z,10.30
2022-10-19T14:08:35.542Z,3.53
2022-10-19T14:11:05.544Z,5.20
2022-10-19T14:13:32.588Z,9.80
2022-10-19T14:16:03.282Z,5.30
2022-10-19T14:18:35.842Z,4.63
2022-10-19T14:21:05.762Z,6.40
2022-10-19T14:23:39.745Z,2.40
2022-10-19T14:26:18.005Z,4.07
2022-10-19T14:28:44.904Z,4.40
2022-10-19T14:31:19.824Z,3.47
2022-10-19T14:33:50.304Z,3.70
2022-10-19T14:36:19.694Z,6.20
2022-10-19T14:38:48.158Z,4.00
2022-10-19T14:41:28.000Z,5.80
2022-10-19T14:43:59.507Z,3.10
2022-10-19T14:46:31.310Z,10.83
2022-10-19T14:49:03.722Z,7.00
2022-10-19T14:51:39.703Z,4.67
2022-10-19T14:54:28.875Z,5.77
2022-10-19T14:57:06.926Z,5.27
2022-10-19T14:59:46.509Z,2.90
2022-10-19T15:02:31.778Z,3.90
2022-10-19T15:05:00.522Z,3.43
2022-10-19T15:07:43.368Z,4.70
2022-10-19T15:10:44.332Z,4.47
2022-10-19T15:13:44.062Z,3.43
2022-10-19T15:16:32.191Z,2.97
2022-10-19T15:19:04.592Z,7.50
2022-10-19T15:21:33.371Z,6.53
2022-10-19T15:24:28.542Z,3.63
2022-10-19T15:27:08.706Z,4.13
2022-10-19T15:29:36.052Z,5.60
2022-10-19T15:32:14.884Z,5.37
2022-10-19T15:34:44.951Z,2.87
2022-10-19T15:37:19.773Z,4.97
2022-10-19T15:39:47.041Z,3.70
2022-10-19T15:42:38.226Z,2.87
2022-10-19T15:45:30.221Z,5.37
2022-10-19T15:48:16.038Z,13.30
2022-10-19T15:50:48.404Z,8.17
2022-10-19T15:53:16.066Z,3.40
2022-10-19T15:55:42.865Z,5.87
2022-10-19T15:58:11.570Z,4.90
2022-10-19T16:00:39.487Z,5.00
2022-10-19T16:03:06.517Z,4.47
2022-10-19T16:05:35.989Z,3.17
2022-10-19T16:08:02.697Z,5.23
2022-10-19T16:10:29.309Z,5.83
2022-10-19T16:12:56.196Z,4.40
2022-10-19T16:15:24.218Z,5.03
2022-10-19T16:17:57.792Z,5.60
2022-10-19T16:20:26.713Z,7.80
2022-10-19T16:22:54.440Z,3.80
2022-10-19T16:25:21.171Z,7.93
2022-10-19T16:27:47.882Z,4.10
2022-10-19T16:30:15.091Z,7.60
2022-10-19T16:35:09.972Z,2.80
2022-10-19T16:37:37.166Z,5.93
2022-10-19T16:40:05.182Z,2.30
2022-10-19T16:42:32.710Z,3.60
2022-10-19T16:44:59.719Z,3.47
2022-10-19T16:47:26.568Z,3.60
2022-10-19T16:50:00.833Z,6.67
2022-10-19T16:52:34.253Z,4.87
2022-10-19T16:55:01.104Z,3.67
2022-10-19T16:57:27.950Z,6.40
2022-10-19T16:59:54.944Z,3.73
2022-10-19T17:02:22.735Z,5.50
2022-10-19T17:04:52.345Z,3.13
2022-10-19T17:07:21.905Z,4.87
2022-10-19T17:09:56.851Z,7.93
2022-10-19T17:12:30.926Z,10.77
2022-10-19T17:17:44.325Z,7.60
2022-10-19T17:20:18.258Z,5.70
2022-10-19T17:22:47.285Z,7.00
2022-10-19T17:25:16.257Z,4.67
2022-10-19T17:27:50.488Z,6.10
2022-10-19T17:30:19.026Z,8.97
2022-10-19T17:32:52.632Z,9.13
2022-10-19T17:35:19.452Z,9.20
2022-10-19T17:37:46.259Z,4.40
2022-10-19T17:40:15.139Z,6.63
2022-10-19T17:42:41.908Z,4.07
2022-10-19T17:45:10.276Z,4.43
2022-10-19T17:47:37.498Z,4.10
2022-10-19T17:50:04.523Z,7.40
2022-10-19T17:52:31.614Z,16.83
2022-10-19T17:55:14.107Z,6.50
2022-10-19T17:57:41.312Z,5.63
2022-10-19T18:00:10.636Z,6.30
2022-10-19T18:02:37.625Z,4.40
2022-10-19T18:05:05.173Z,7.43
2022-10-19T18:07:32.406Z,4.90
2022-10-19T18:09:59.105Z,5.40
2022-10-19T18:12:26.645Z,9.40
2022-10-19T18:14:53.277Z,4.37
2022-10-19T18:17:23.980Z,4.03
2022-10-19T18:19:53.566Z,6.00
2022-10-19T18:22:21.807Z,5.70
2022-10-19T18:24:49.454Z,6.67
2022-10-19T18:27:16.167Z,9.93
2022-10-19T18:29:42.928Z,5.17
2022-10-19T18:32:10.937Z,4.33
2022-10-19T18:34:38.316Z,7.03
2022-10-19T18:37:05.429Z,4.63
2022-10-19T18:39:32.055Z,4.53
2022-10-19T18:41:58.823Z,4.07
2022-10-19T18:44:27.370Z,7.23
2022-10-19T18:46:56.916Z,5.33
2022-10-19T18:49:27.080Z,7.10
2022-10-19T18:51:58.522Z,8.90
2022-10-19T18:54:27.987Z,4.77
2022-10-19T18:56:55.679Z,5.17
2022-10-19T18:59:22.557Z,10.93
2022-10-19T19:01:49.429Z,4.20
2022-10-19T19:04:16.111Z,7.47
2022-10-19T19:06:42.845Z,9.43
2022-10-19T19:09:11.859Z,9.40
2022-10-19T19:11:40.895Z,8.30
2022-10-19T19:14:17.085Z,8.40
2022-10-19T19:16:44.980Z,7.50
2022-10-19T19:19:47.495Z,5.07
2022-10-19T19:22:21.068Z,6.43
2022-10-19T19:24:51.673Z,6.00
2022-10-19T19:27:30.765Z,4.80
2022-10-19T19:30:00.918Z,4.87
2022-10-19T19:32:27.911Z,7.30
2022-10-19T19:34:54.985Z,9.00
2022-10-19T19:37:24.504Z,8.13
2022-10-19T19:39:51.372Z,9.80
2022-10-19T19:42:18.320Z,8.20
2022-10-19T19:44:44.988Z,13.57
2022-10-19T19:47:11.707Z,6.20
2022-10-19T19:49:38.426Z,6.90
2022-10-19T19:52:07.291Z,3.97
2022-10-19T19:54:34.168Z,4.37
2022-10-19T19:57:00.875Z,8.70
2022-10-19T19:59:27.802Z,11.10
2022-10-19T20:01:54.637Z,8.43
2022-10-19T20:04:22.603Z,6.60
2022-10-19T20:06:49.307Z,7.40
2022-10-19T20:09:16.075Z,5.10
2022-10-19T20:11:46.583Z,5.60
2022-10-19T20:14:15.543Z,9.60
2022-10-19T20:16:52.238Z,8.80
2022-10-19T20:19:20.839Z,10.60
2022-10-19T20:21:50.664Z,5.57
2022-10-19T20:24:30.332Z,4.67
2022-10-19T20:27:06.717Z,6.53
2022-10-19T20:29:33.368Z,7.83
2022-10-19T20:32:00.034Z,5.07
2022-10-19T20:34:26.680Z,5.30
2022-10-19T20:36:53.315Z,5.50
2022-10-19T20:39:19.969Z,5.30
2022-10-19T20:41:46.570Z,4.53
2022-10-19T20:44:14.390Z,8.13
2022-10-19T20:46:41.054Z,8.23
2022-10-19T20:49:09.109Z,8.33
2022-10-19T20:51:39.735Z,11.33
2022-10-19T20:54:10.650Z,8.97
2022-10-19T20:56:39.263Z,7.63
2022-10-19T20:59:08.717Z,5.37
2022-10-19T21:01:37.457Z,5.77
2022-10-19T21:04:06.490Z,6.77
2022-10-19T21:06:34.981Z,10.40
2022-10-19T21:09:01.993Z,7.53
2022-10-19T21:11:31.603Z,7.17
2022-10-19T21:14:01.043Z,7.00
2022-10-19T21:16:29.901Z,5.67
2022-10-19T21:18:57.971Z,5.70
2022-10-19T21:21:29.673Z,6.50
2022-10-19T21:24:17.617Z,15.13
2022-10-19T21:26:44.969Z,12.43
2022-10-19T21:29:13.340Z,12.27
2022-10-19T21:31:44.074Z,7.50
2022-10-19T21:34:15.752Z,33.63
2022-10-19T21:36:42.949Z,8.03
2022-10-19T21:39:09.601Z,9.70
2022-10-19T21:41:36.427Z,9.67
2022-10-19T21:44:03.308Z,5.97
2022-10-19T21:46:30.143Z,6.83
2022-10-19T21:48:56.787Z,8.60
2022-10-19T21:51:43.995Z,8.07
2022-10-19T21:54:21.900Z,8.57
2022-10-19T21:56:48.825Z,8.20
2022-10-19T21:59:16.087Z,7.50
2022-10-19T22:01:43.330Z,9.50
2022-10-19T22:04:16.612Z,10.40
2022-10-19T22:06:44.211Z,7.73
2022-10-19T22:09:14.348Z,10.00
2022-10-19T22:11:41.544Z,12.77
2022-10-19T22:14:09.393Z,11.97
2022-10-19T22:16:36.682Z,8.23
2022-10-19T22:19:05.198Z,9.20
2022-10-19T22:21:33.320Z,11.00
2022-10-19T22:24:02.746Z,13.17
2022-10-19T22:26:37.159Z,9.33
2022-10-19T22:29:05.763Z,8.40
2022-10-19T22:31:33.865Z,8.60
2022-10-19T22:34:02.181Z,16.20
2022-10-19T22:36:28.884Z,10.93
2022-10-19T22:38:55.587Z,10.83
2022-10-19T22:41:22.624Z,10.23
2022-10-19T22:43:49.300Z,12.33
2022-10-19T22:46:15.960Z,10.20
2022-10-19T22:48:42.648Z,9.63
2022-10-19T22:51:09.304Z,13.53
2022-10-19T22:53:35.972Z,10.53
2022-10-19T22:56:02.833Z,9.27
2022-10-19T22:58:29.476Z,11.50
2022-10-19T23:01:15.587Z,15.43
2022-10-19T23:03:42.832Z,13.30
2022-10-19T23:06:11.700Z,14.17
2022-10-19T23:08:38.732Z,8.93
2022-10-19T23:11:05.710Z,10.87
2022-10-19T23:13:32.585Z,9.43
2022-10-19T23:15:59.392Z,14.87
2022-10-19T23:18:26.024Z,14.87
2022-10-19T23:21:04.781Z,12.97
2022-10-19T23:23:33.155Z,16.73
2022-10-19T23:26:08.608Z,16.20
2022-10-19T23:28:37.319Z,10.50
2022-10-19T23:31:06.404Z,10.30
2022-10-19T23:33:33.782Z,10.17
2022-10-19T23:36:06.470Z,11.17
2022-10-19T23:38:33.713Z,16.37
2022-10-19T23:41:00.362Z,11.20
2022-10-19T23:43:27.308Z,13.23
2022-10-19T23:45:54.170Z,12.40
2022-10-19T23:48:20.898Z,9.73
2022-10-19T23:50:55.953Z,9.43
2022-10-19T23:53:22.610Z,9.97
2022-10-19T23:55:49.415Z,10.17
2022-10-19T23:58:16.035Z,12.10
